createdAt,value
2018-10-05T00:04:34.320Z,7.77
2018-10-05T00:09:36.473Z,7.20
2018-10-05T00:14:38.626Z,8.50
2018-10-05T00:19:40.764Z,7.93
2018-10-05T00:24:42.922Z,7.40
2018-10-05T00:29:45.066Z,7.80
2018-10-05T00:34:47.354Z,8.30
2018-10-05T00:39:49.498Z,8.03
2018-10-05T00:44:51.637Z,7.90
2018-10-05T00:49:53.766Z,7.10
2018-10-05T00:54:55.941Z,7.70
2018-10-05T00:59:58.074Z,7.97
2018-10-05T01:05:00.209Z,7.33
2018-10-05T01:10:02.354Z,7.67
2018-10-05T01:15:04.538Z,8.40
2018-10-05T01:20:06.678Z,8.43
2018-10-05T01:25:08.826Z,7.97
2018-10-05T01:30:12.006Z,7.87
2018-10-05T01:35:14.183Z,7.70
2018-10-05T01:40:16.318Z,9.10
2018-10-05T01:45:18.469Z,8.60
2018-10-05T01:50:20.643Z,9.17
2018-10-05T01:55:22.797Z,9.27
2018-10-05T02:00:24.945Z,10.97
2018-10-05T02:05:27.106Z,11.43
2018-10-05T02:10:29.262Z,10.70
2018-10-05T02:15:31.397Z,11.07
2018-10-05T02:20:33.528Z,10.27
2018-10-05T02:25:35.679Z,9.23
2018-10-05T02:30:37.829Z,7.90
2018-10-05T02:35:39.965Z,8.57
2018-10-05T02:40:42.120Z,7.53
2018-10-05T02:45:44.262Z,8.70
2018-10-05T02:50:46.397Z,8.37
2018-10-05T02:55:48.557Z,8.10
2018-10-05T03:01:02.274Z,9.00
2018-10-05T03:06:04.414Z,8.33
2018-10-05T03:11:06.557Z,8.30
2018-10-05T03:16:08.725Z,8.57
2018-10-05T03:21:10.866Z,9.20
2018-10-05T03:26:12.994Z,9.73
2018-10-05T03:31:15.182Z,8.80
2018-10-05T03:36:17.322Z,9.17
2018-10-05T03:41:19.454Z,8.80
2018-10-05T03:46:21.599Z,9.47
2018-10-05T03:51:23.734Z,8.47
2018-10-05T03:56:25.854Z,8.83
2018-10-05T04:01:27.994Z,8.77
2018-10-05T04:06:30.138Z,9.03
2018-10-05T04:11:32.494Z,10.10
2018-10-05T04:16:34.646Z,13.60
2018-10-05T04:21:36.779Z,11.20
2018-10-05T04:26:38.914Z,10.13
2018-10-05T04:31:41.046Z,10.10
2018-10-05T04:36:43.178Z,9.60
2018-10-05T04:41:45.329Z,10.53
2018-10-05T04:46:47.470Z,9.80
2018-10-05T04:51:49.638Z,10.40
2018-10-05T04:56:51.895Z,21.03
2018-10-05T05:01:53.913Z,11.73
2018-10-05T05:06:56.051Z,14.73
2018-10-05T05:11:58.241Z,12.63
2018-10-05T05:17:00.362Z,11.30
2018-10-05T05:22:02.495Z,10.97
2018-10-05T05:27:04.714Z,10.97
2018-10-05T05:32:06.901Z,11.97
2018-10-05T05:37:09.030Z,12.60
2018-10-05T05:42:11.175Z,15.60
2018-10-05T05:47:13.327Z,13.93
2018-10-05T05:52:15.478Z,10.80
2018-10-05T05:57:17.646Z,9.90
2018-10-05T06:02:19.816Z,11.50
2018-10-05T06:07:21.978Z,10.33
2018-10-05T06:12:24.098Z,9.17
2018-10-05T06:17:26.295Z,9.83
2018-10-05T06:22:28.530Z,7.87
2018-10-05T06:27:30.657Z,7.50
2018-10-05T06:32:32.733Z,9.20
2018-10-05T06:37:34.877Z,7.70
2018-10-05T06:42:37.194Z,8.67
2018-10-05T06:47:39.258Z,9.20
2018-10-05T06:52:41.390Z,8.40
2018-10-05T06:57:43.535Z,7.30
2018-10-05T07:02:45.690Z,7.50
2018-10-05T07:07:48.009Z,6.90
2018-10-05T07:12:49.975Z,8.17
2018-10-05T07:17:52.106Z,7.60
2018-10-05T07:22:54.248Z,7.90
2018-10-05T07:27:56.438Z,7.40
2018-10-05T07:32:58.597Z,7.37
2018-10-05T07:38:00.734Z,6.87
2018-10-05T07:43:02.888Z,7.37
2018-10-05T07:48:05.101Z,6.70
2018-10-05T07:53:07.295Z,6.93
2018-10-05T07:58:09.401Z,6.80
2018-10-05T08:03:11.523Z,6.57
2018-10-05T08:08:13.661Z,6.47
2018-10-05T08:13:15.818Z,6.90
2018-10-05T08:18:18.132Z,7.10
2018-10-05T08:23:20.276Z,7.13
2018-10-05T08:28:22.430Z,6.83
2018-10-05T08:33:24.565Z,7.03
2018-10-05T08:38:26.717Z,7.00
2018-10-05T08:43:28.873Z,6.50
2018-10-05T08:48:31.051Z,6.40
2018-10-05T08:53:33.221Z,6.90
2018-10-05T08:58:35.362Z,6.97
2018-10-05T09:03:37.554Z,7.50
2018-10-05T09:08:39.738Z,7.10
2018-10-05T09:13:41.894Z,6.90
2018-10-05T09:18:44.054Z,6.53
2018-10-05T09:23:46.193Z,7.27
2018-10-05T09:28:48.426Z,6.67
2018-10-05T09:33:50.632Z,7.20
2018-10-05T09:38:52.778Z,6.40
2018-10-05T09:43:54.934Z,6.87
2018-10-05T09:48:57.077Z,6.67
2018-10-05T09:53:59.226Z,6.50
2018-10-05T09:59:01.379Z,6.57
2018-10-05T10:04:03.558Z,6.77
2018-10-05T10:09:07.010Z,7.77
2018-10-05T10:14:09.193Z,7.40
2018-10-05T10:19:11.366Z,7.37
2018-10-05T10:24:13.541Z,8.20
2018-10-05T10:29:15.710Z,7.37
2018-10-05T10:34:17.861Z,6.60
2018-10-05T10:39:19.977Z,8.07
2018-10-05T10:44:22.137Z,7.20
2018-10-05T10:49:24.309Z,7.33
2018-10-05T10:54:26.489Z,7.00
2018-10-05T10:59:28.692Z,6.70
2018-10-05T11:04:30.862Z,7.73
2018-10-05T11:09:33.013Z,7.63
2018-10-05T11:14:35.193Z,7.30
2018-10-05T11:19:37.362Z,7.40
2018-10-05T11:24:39.526Z,7.57
2018-10-05T11:29:41.722Z,7.60
2018-10-05T11:34:43.874Z,7.90
2018-10-05T11:39:46.064Z,9.60
2018-10-05T11:44:48.250Z,7.63
2018-10-05T11:49:50.409Z,7.90
2018-10-05T11:54:52.625Z,7.97
2018-10-05T11:59:54.811Z,7.70
2018-10-05T12:04:56.994Z,8.03
2018-10-05T12:09:59.150Z,8.10
2018-10-05T12:15:01.329Z,7.90
2018-10-05T12:20:03.545Z,8.20
2018-10-05T12:25:05.930Z,8.57
2018-10-05T12:30:08.106Z,6.53
2018-10-05T12:35:10.287Z,8.20
2018-10-05T12:40:12.526Z,7.40
2018-10-05T12:45:14.682Z,7.47
2018-10-05T12:50:16.931Z,6.70
2018-10-05T12:55:19.097Z,7.13
2018-10-05T13:00:21.308Z,7.17
2018-10-05T13:05:23.467Z,7.40
2018-10-05T13:10:26.253Z,7.60
2018-10-05T13:15:28.482Z,7.63
2018-10-05T13:20:30.649Z,8.00
2018-10-05T13:25:32.818Z,8.40
2018-10-05T13:30:35.054Z,8.20
2018-10-05T13:35:37.216Z,8.00
2018-10-05T13:40:39.386Z,7.80
2018-10-05T13:45:41.581Z,8.13
2018-10-05T13:50:43.770Z,8.03
2018-10-05T13:55:45.961Z,8.20
2018-10-05T14:00:48.138Z,7.33
2018-10-05T14:05:50.366Z,6.90
2018-10-05T14:10:52.518Z,6.77
2018-10-05T14:15:54.662Z,6.50
2018-10-05T14:20:56.850Z,7.30
2018-10-05T14:25:58.998Z,6.47
2018-10-05T14:31:01.157Z,6.17
2018-10-05T14:36:03.302Z,6.50
2018-10-05T14:41:05.646Z,6.47
2018-10-05T14:46:07.942Z,6.50
2018-10-05T14:51:10.114Z,5.93
2018-10-05T14:56:12.262Z,6.30
2018-10-05T15:01:14.434Z,5.80
2018-10-05T15:06:16.589Z,5.17
2018-10-05T15:11:18.741Z,5.00
2018-10-05T15:16:20.877Z,4.70
2018-10-05T15:21:23.287Z,5.00
2018-10-05T15:26:25.358Z,4.40
2018-10-05T15:31:27.530Z,4.80
2018-10-05T15:36:29.693Z,4.30
2018-10-05T15:41:31.833Z,4.30
2018-10-05T15:47:10.010Z,4.27
2018-10-05T15:52:12.169Z,4.20
2018-10-05T15:57:14.321Z,4.43
2018-10-05T16:02:16.457Z,4.50
2018-10-05T16:07:18.615Z,6.10
2018-10-05T16:12:20.790Z,5.43
2018-10-05T16:17:22.920Z,4.10
2018-10-05T16:22:25.053Z,4.17
2018-10-05T16:27:27.206Z,4.13
2018-10-05T16:32:29.362Z,4.27
2018-10-05T16:37:31.549Z,4.40
2018-10-05T16:42:33.679Z,4.50
2018-10-05T16:47:35.846Z,4.50
2018-10-05T16:52:37.974Z,4.80
2018-10-05T16:57:40.112Z,5.47
2018-10-05T17:02:42.253Z,4.50
2018-10-05T17:07:44.426Z,4.50
2018-10-05T17:12:46.570Z,5.00
2018-10-05T17:17:48.722Z,6.00
2018-10-05T17:22:50.887Z,6.67
2018-10-05T17:27:53.714Z,6.87
2018-10-05T17:32:55.855Z,6.73
2018-10-05T17:37:58.050Z,5.90
2018-10-05T17:43:00.278Z,5.77
2018-10-05T17:48:02.418Z,6.17
2018-10-05T17:53:04.578Z,6.60
2018-10-05T17:58:06.710Z,5.70
2018-10-05T18:03:08.835Z,5.70
2018-10-05T18:08:11.001Z,5.80
2018-10-05T18:13:13.147Z,6.80
2018-10-05T18:18:15.310Z,6.10
2018-10-05T18:23:17.458Z,6.17
2018-10-05T18:28:19.603Z,6.20
2018-10-05T18:33:21.815Z,7.00
2018-10-05T18:38:24.017Z,5.93
2018-10-05T18:43:26.145Z,6.37
2018-10-05T18:48:28.329Z,6.50
2018-10-05T18:53:30.460Z,7.03
2018-10-05T18:58:32.606Z,6.70
2018-10-05T19:03:34.745Z,6.60
2018-10-05T19:08:36.874Z,8.63
2018-10-05T19:13:39.052Z,8.13
2018-10-05T19:18:41.189Z,7.20
2018-10-05T19:23:44.391Z,8.93
2018-10-05T19:28:46.521Z,7.73
2018-10-05T19:33:48.794Z,7.47
2018-10-05T19:38:50.935Z,6.43
2018-10-05T19:43:53.071Z,6.93
2018-10-05T19:48:55.205Z,6.27
2018-10-05T19:53:57.490Z,7.47
2018-10-05T19:58:59.594Z,7.40
2018-10-05T20:04:01.753Z,7.30
2018-10-05T20:09:05.652Z,7.57
2018-10-05T20:14:07.798Z,7.70
2018-10-05T20:19:09.925Z,8.07
2018-10-05T20:24:12.148Z,7.17
2018-10-05T20:29:14.245Z,8.97
2018-10-05T20:34:16.390Z,9.53
2018-10-05T20:39:18.530Z,7.20
2018-10-05T20:44:20.727Z,6.80
2018-10-05T20:49:22.801Z,7.00
2018-10-05T20:54:24.957Z,7.70
2018-10-05T20:59:27.121Z,7.90
2018-10-05T21:04:29.277Z,8.20
2018-10-05T21:09:31.460Z,10.17
2018-10-05T21:14:33.594Z,11.40
2018-10-05T21:19:35.755Z,10.03
2018-10-05T21:24:37.893Z,8.40
2018-10-05T21:29:40.053Z,8.23
2018-10-05T21:34:42.185Z,8.00
2018-10-05T21:39:44.323Z,7.87
2018-10-05T21:44:46.483Z,7.80
2018-10-05T21:49:48.610Z,7.20
2018-10-05T21:54:51.526Z,8.87
2018-10-05T21:59:53.661Z,7.90
2018-10-05T22:04:55.792Z,7.90
2018-10-05T22:09:57.946Z,8.40
2018-10-05T22:15:00.086Z,8.20
2018-10-05T22:20:02.288Z,7.90
2018-10-05T22:25:04.410Z,8.43
2018-10-05T22:30:06.646Z,7.90
2018-10-05T22:35:08.913Z,9.10
2018-10-05T22:40:11.066Z,7.73
2018-10-05T22:45:13.230Z,8.50
2018-10-05T22:50:15.400Z,8.63
2018-10-05T22:55:17.541Z,8.27
2018-10-05T23:00:19.690Z,8.37
2018-10-05T23:05:21.826Z,7.70
2018-10-05T23:10:23.972Z,8.40
2018-10-05T23:15:26.098Z,8.10
2018-10-05T23:20:28.242Z,8.83
2018-10-05T23:25:30.386Z,8.43
2018-10-05T23:30:32.537Z,8.60
2018-10-05T23:35:34.670Z,8.80
2018-10-05T23:40:36.837Z,8.30
2018-10-05T23:45:38.972Z,9.50
2018-10-05T23:50:41.120Z,9.40
2018-10-05T23:55:43.286Z,9.30
